Time;durP1;ratioP1;P1;durP2;ratioP2;P2;SDS_P1;SDS_P2;PMS_P1;PMS_P2;Temp;Humidity;BMP_temperature;BMP_pressure;BME280_temperature;BME280_humidity;BME280_pressure;Samples;Min_cycle;Max_cycle;Signal;HPM_P1;HPM_P2
2022/09/27 00:00:26;;;;;;;8.82;0.50;;;10.00;99.90;;;;;;4995185;28;20434;-82
2022/09/27 00:02:52;;;;;;;8.18;0.50;;;10.00;99.90;;;;;;4994250;28;20088;-81
2022/09/27 00:05:17;;;;;;;8.95;0.50;;;10.00;99.90;;;;;;4995674;28;20465;-78
2022/09/27 00:07:44;;;;;;;5.10;0.40;;;9.90;99.90;;;;;;4977978;28;20078;-81
2022/09/27 00:10:10;;;;;;;10.43;0.70;;;9.80;99.90;;;;;;4994866;28;20086;-76
2022/09/27 00:12:37;;;;;;;8.57;0.57;;;9.60;99.90;;;;;;4994468;28;20505;-76
2022/09/27 00:15:04;;;;;;;10.30;0.65;;;9.50;99.90;;;;;;4994474;28;20468;-76
2022/09/27 00:17:30;;;;;;;11.85;0.75;;;9.50;99.90;;;;;;4994080;28;20062;-77
2022/09/27 00:19:58;;;;;;;8.57;0.38;;;9.40;99.90;;;;;;4978490;28;20049;-75
2022/09/27 00:22:25;;;;;;;6.60;0.50;;;9.40;99.90;;;;;;4995426;28;20379;-76
2022/09/27 00:24:51;;;;;;;5.70;0.40;;;9.30;99.90;;;;;;4994656;28;20046;-78
2022/09/27 00:27:17;;;;;;;8.33;0.60;;;9.20;99.90;;;;;;4997744;28;20164;-75
2022/09/27 00:29:44;;;;;;;5.75;0.40;;;9.20;99.90;;;;;;5008347;28;20057;-78
2022/09/27 00:32:10;;;;;;;5.57;0.43;;;9.10;99.90;;;;;;5013652;28;20043;-78
2022/09/27 00:34:36;;;;;;;5.95;0.30;;;9.10;99.90;;;;;;4999727;28;20295;-76
2022/09/27 00:37:02;;;;;;;5.68;0.50;;;9.00;99.90;;;;;;4996495;28;20050;-77
2022/09/27 00:39:27;;;;;;;11.25;0.60;;;9.00;99.90;;;;;;5011312;28;20073;-82
2022/09/27 00:41:53;;;;;;;9.40;0.50;;;9.00;99.90;;;;;;4995164;28;20053;-75
2022/09/27 00:44:25;;;;;;;6.90;0.52;;;9.00;99.90;;;;;;4993943;28;20062;-74
2022/09/27 00:47:17;;;;;;;7.30;0.50;;;8.90;99.90;;;;;;4994995;28;20065;-76
2022/09/27 00:49:49;;;;;;;12.30;0.52;;;8.90;99.90;;;;;;4994925;28;20046;-75
2022/09/27 00:52:26;;;;;;;9.27;0.30;;;8.90;99.90;;;;;;4994957;28;20376;-76
2022/09/27 00:54:57;;;;;;;8.82;0.60;;;8.90;99.90;;;;;;4994593;28;20187;-78
2022/09/27 00:57:23;;;;;;;3.08;0.22;;;9.00;99.90;;;;;;4995658;28;20038;-78
2022/09/27 00:59:57;;;;;;;5.68;0.50;;;9.00;99.90;;;;;;4994848;28;20388;-75
2022/09/27 01:02:22;;;;;;;7.18;0.40;;;9.10;99.90;;;;;;4995158;28;20101;-76
2022/09/27 01:04:48;;;;;;;4.32;0.30;;;9.10;99.90;;;;;;4994122;28;20046;-75
2022/09/27 01:07:14;;;;;;;7.10;0.77;;;9.10;99.90;;;;;;4994405;28;20046;-75
2022/09/27 01:09:40;;;;;;;7.20;0.40;;;9.20;99.90;;;;;;4995320;28;20046;-77
2022/09/27 01:12:24;;;;;;;6.68;0.40;;;9.20;99.90;;;;;;4993224;28;20101;-76
2022/09/27 01:14:53;;;;;;;5.65;0.35;;;9.30;99.90;;;;;;4994749;28;20046;-75
2022/09/27 01:17:36;;;;;;;6.45;0.28;;;9.30;99.90;;;;;;4994054;28;20515;-76
2022/09/27 01:20:20;;;;;;;10.57;0.60;;;9.40;99.90;;;;;;4993801;28;20521;-75
2022/09/27 01:22:58;;;;;;;7.03;0.30;;;9.40;99.90;;;;;;5009639;28;20054;-79
2022/09/27 01:25:42;;;;;;;2.22;0.30;;;9.40;99.90;;;;;;4994416;28;20462;-76
2022/09/27 01:28:45;;;;;;;1.92;0.20;;;9.40;99.90;;;;;;4993991;28;20054;-75
2022/09/27 01:31:18;;;;;;;7.20;0.25;;;9.40;99.90;;;;;;4994109;28;20098;-78
2022/09/27 01:33:50;;;;;;;6.68;0.30;;;9.40;99.90;;;;;;5009483;28;20046;-76
2022/09/27 01:36:27;;;;;;;6.40;0.30;;;9.40;99.90;;;;;;4994141;28;20134;-76
2022/09/27 01:39:01;;;;;;;5.03;0.20;;;9.40;99.90;;;;;;5009303;28;20054;-75
2022/09/27 01:41:37;;;;;;;7.05;0.30;;;9.40;99.90;;;;;;4993795;28;20046;-77
2022/09/27 01:44:10;;;;;;;4.47;0.20;;;9.40;99.90;;;;;;5009083;28;20062;-77
2022/09/27 01:46:40;;;;;;;4.72;0.20;;;9.40;99.90;;;;;;4992575;28;20054;-81
2022/09/27 01:49:15;;;;;;;4.80;0.20;;;9.30;99.90;;;;;;4994155;28;20343;-77
2022/09/27 01:51:53;;;;;;;4.30;0.22;;;9.20;99.90;;;;;;4994272;28;20069;-75
2022/09/27 01:54:29;;;;;;;8.40;0.50;;;9.20;99.90;;;;;;4993964;28;20472;-77
2022/09/27 01:56:57;;;;;;;3.88;0.20;;;9.20;99.90;;;;;;4993255;28;20399;-76
2022/09/27 01:59:28;;;;;;;7.00;0.35;;;9.20;99.90;;;;;;4993186;28;20383;-76
2022/09/27 02:01:59;;;;;;;9.95;0.30;;;9.10;99.90;;;;;;4993032;28;20522;-80
2022/09/27 02:04:30;;;;;;;6.53;0.30;;;9.10;99.90;;;;;;4994250;28;20042;-77
2022/09/27 02:07:10;;;;;;;9.45;0.30;;;9.00;99.90;;;;;;4994030;28;20047;-79
2022/09/27 02:10:01;;;;;;;6.93;0.45;;;9.00;99.90;;;;;;4994162;28;20240;-78
2022/09/27 02:12:32;;;;;;;3.65;0.30;;;9.00;99.90;;;;;;4993930;28;20054;-79
2022/09/27 02:15:07;;;;;;;11.13;0.30;;;9.00;99.90;;;;;;4992662;28;20038;-78
2022/09/27 02:17:44;;;;;;;4.72;0.17;;;8.90;99.90;;;;;;4994181;28;20049;-78
2022/09/27 02:20:21;;;;;;;9.73;0.32;;;8.90;99.90;;;;;;5008471;28;20618;-81
2022/09/27 02:22:53;;;;;;;3.67;0.22;;;8.90;99.90;;;;;;4993757;28;20050;-79
2022/09/27 02:25:40;;;;;;;3.63;0.75;;;9.00;99.90;;;;;;4994011;28;20089;-75
2022/09/27 02:28:21;;;;;;;3.28;0.20;;;9.00;99.90;;;;;;4993717;28;20456;-76
2022/09/27 02:30:47;;;;;;;6.65;0.25;;;9.00;99.90;;;;;;4993968;28;20309;-77
2022/09/27 02:33:12;;;;;;;7.20;0.30;;;9.00;99.90;;;;;;4993475;28;20161;-76
2022/09/27 02:35:38;;;;;;;5.10;0.30;;;9.00;99.90;;;;;;4993394;28;20129;-80
2022/09/27 02:38:06;;;;;;;6.32;0.40;;;9.00;99.90;;;;;;4994182;28;20133;-77
2022/09/27 02:40:35;;;;;;;1.70;0.10;;;9.20;99.90;;;;;;4992247;28;20061;-76
2022/09/27 02:43:03;;;;;;;10.30;0.95;;;9.10;99.90;;;;;;4992919;28;20046;-76
2022/09/27 02:45:38;;;;;;;2.55;0.28;;;9.10;99.90;;;;;;4993630;28;20120;-76
2022/09/27 02:48:37;;;;;;;4.93;0.20;;;9.10;99.90;;;;;;4993559;28;20109;-74
2022/09/27 02:51:15;;;;;;;1.77;0.10;;;9.10;99.90;;;;;;4991645;28;20058;-75
2022/09/27 02:54:00;;;;;;;4.70;0.20;;;9.10;99.90;;;;;;4993110;28;20046;-83
2022/09/27 02:56:52;;;;;;;8.10;0.20;;;9.00;99.90;;;;;;4993494;28;20368;-75
2022/09/27 02:59:29;;;;;;;2.63;0.10;;;9.00;99.90;;;;;;4993181;28;20042;-73
2022/09/27 03:02:13;;;;;;;2.00;0.10;;;9.00;99.90;;;;;;4993111;28;20057;-75
2022/09/27 03:05:07;;;;;;;6.53;0.28;;;8.90;99.90;;;;;;4992841;28;20035;-75
2022/09/27 03:07:33;;;;;;;7.20;0.28;;;8.80;99.90;;;;;;4990570;28;20050;-73
2022/09/27 03:09:59;;;;;;;4.25;0.50;;;8.80;99.90;;;;;;5008295;28;20120;-74
2022/09/27 03:12:25;;;;;;;4.00;0.10;;;8.80;99.90;;;;;;4992756;28;20112;-74
2022/09/27 03:14:54;;;;;;;9.98;0.20;;;8.70;99.90;;;;;;4993090;28;20050;-74
2022/09/27 03:17:19;;;;;;;4.60;0.20;;;8.70;99.90;;;;;;4991820;28;20134;-74
2022/09/27 03:19:45;;;;;;;4.60;0.20;;;8.70;99.90;;;;;;4991936;28;20133;-76
2022/09/27 03:22:11;;;;;;;5.32;0.20;;;8.70;99.90;;;;;;4997221;28;20046;-74
2022/09/27 03:24:36;;;;;;;6.32;0.20;;;8.70;99.90;;;;;;4999459;28;20042;-77
2022/09/27 03:27:02;;;;;;;3.35;0.50;;;8.70;99.90;;;;;;5007628;28;20050;-75
2022/09/27 03:29:28;;;;;;;4.78;0.20;;;8.70;99.90;;;;;;5000472;28;20046;-75
2022/09/27 03:31:53;;;;;;;2.05;0.10;;;8.70;99.90;;;;;;4996414;28;20043;-74
2022/09/27 03:34:19;;;;;;;3.72;0.10;;;8.60;99.90;;;;;;4997412;28;20050;-77
2022/09/27 03:36:45;;;;;;;4.10;0.30;;;8.70;99.90;;;;;;4999246;28;20326;-81
2022/09/27 03:39:10;;;;;;;3.85;0.20;;;8.70;99.90;;;;;;5003222;28;20050;-74
2022/09/27 03:41:37;;;;;;;4.43;0.10;;;8.70;99.90;;;;;;5007295;28;20053;-75
2022/09/27 03:44:03;;;;;;;5.95;0.20;;;8.70;99.90;;;;;;5002903;28;20415;-76
2022/09/27 03:46:28;;;;;;;4.25;0.10;;;8.70;99.90;;;;;;4999680;28;20089;-77
2022/09/27 03:48:54;;;;;;;2.80;0.10;;;8.60;99.90;;;;;;4996792;28;20050;-77
2022/09/27 03:51:20;;;;;;;4.78;0.28;;;8.60;99.90;;;;;;4995230;28;20054;-77
2022/09/27 03:53:45;;;;;;;4.45;0.13;;;8.60;99.90;;;;;;4995328;28;20046;-78
2022/09/27 03:56:12;;;;;;;1.63;0.20;;;8.50;99.90;;;;;;4994671;28;20061;-79
2022/09/27 03:58:37;;;;;;;2.42;0.10;;;8.50;99.90;;;;;;4995849;28;20038;-77
2022/09/27 04:01:03;;;;;;;1.52;0.10;;;8.50;99.90;;;;;;4995959;28;20050;-75
2022/09/27 04:03:29;;;;;;;3.38;0.10;;;8.50;99.90;;;;;;4995911;28;20057;-77
2022/09/27 04:05:55;;;;;;;0.88;0.10;;;8.50;99.90;;;;;;4995049;28;20050;-75
2022/09/27 04:08:23;;;;;;;7.80;0.20;;;8.50;99.90;;;;;;4995845;28;20450;-75
2022/09/27 04:10:49;;;;;;;3.58;0.10;;;8.40;99.90;;;;;;5010985;28;20089;-80
2022/09/27 04:13:14;;;;;;;1.70;0.28;;;8.40;99.90;;;;;;4995949;28;20058;-75
2022/09/27 04:15:42;;;;;;;4.22;0.40;;;8.40;99.90;;;;;;4995642;28;20045;-78
2022/09/27 04:18:07;;;;;;;1.75;0.20;;;8.40;99.90;;;;;;4994760;28;20453;-75
2022/09/27 04:20:40;;;;;;;2.53;0.30;;;8.40;99.90;;;;;;4995678;28;20047;-75
2022/09/27 04:23:06;;;;;;;3.70;0.22;;;8.40;99.90;;;;;;4995465;28;20051;-72
2022/09/27 04:25:31;;;;;;;7.72;0.40;;;8.40;99.90;;;;;;4995726;28;20046;-77
2022/09/27 04:27:58;;;;;;;6.55;0.30;;;8.30;99.90;;;;;;4994487;28;20123;-73
2022/09/27 04:30:25;;;;;;;9.20;0.50;;;8.30;99.90;;;;;;4995744;28;20047;-75
2022/09/27 04:32:51;;;;;;;10.23;0.55;;;8.20;99.90;;;;;;4995486;28;20116;-75
2022/09/27 04:38:01;;;;;;;3.17;0.20;;;8.20;99.90;;;;;;4995550;28;20050;-74
2022/09/27 04:40:27;;;;;;;4.82;0.30;;;8.20;99.90;;;;;;4994876;28;20054;-75
2022/09/27 04:42:53;;;;;;;5.60;0.45;;;8.20;99.90;;;;;;4994854;28;20168;-79
2022/09/27 04:45:19;;;;;;;5.03;0.30;;;8.10;99.90;;;;;;4994633;28;20058;-74
2022/09/27 04:47:49;;;;;;;5.40;0.40;;;8.10;99.90;;;;;;4995905;28;20395;-73
2022/09/27 04:50:16;;;;;;;9.63;0.60;;;8.00;99.90;;;;;;4995576;28;20068;-75
2022/09/27 04:52:42;;;;;;;;;;;7.90;99.90;;;;;;4995662;28;20050;-74
2022/09/27 04:55:08;;;;;;;3.60;0.50;;;7.90;99.90;;;;;;4993849;28;19973;-74
2022/09/27 04:57:35;;;;;;;3.72;0.30;;;7.80;99.90;;;;;;4993761;28;20105;-77
2022/09/27 05:00:01;;;;;;;4.32;0.30;;;7.80;99.90;;;;;;4994533;28;20054;-75
2022/09/27 05:02:27;;;;;;;6.50;0.40;;;7.70;99.90;;;;;;4994266;28;20046;-74
2022/09/27 05:04:56;;;;;;;9.98;0.43;;;7.60;99.90;;;;;;4994780;28;20081;-74
2022/09/27 05:07:22;;;;;;;6.82;0.40;;;7.60;99.90;;;;;;4996529;28;20046;-73
2022/09/27 05:09:48;;;;;;;6.50;0.50;;;7.60;99.90;;;;;;4994664;28;20137;-74
2022/09/27 05:12:14;;;;;;;4.55;0.40;;;7.50;99.90;;;;;;4995380;28;20082;-74
2022/09/27 05:14:40;;;;;;;6.80;0.45;;;7.40;99.90;;;;;;4994232;28;20161;-74
2022/09/27 05:17:06;;;;;;;9.93;0.45;;;7.40;99.90;;;;;;4994988;28;20046;-74
2022/09/27 05:19:33;;;;;;;11.97;2.73;;;7.30;99.90;;;;;;4994869;28;20085;-74
2022/09/27 05:21:59;;;;;;;9.77;0.98;;;7.30;99.90;;;;;;4993904;28;20050;-81
2022/09/27 05:24:26;;;;;;;5.70;0.50;;;7.30;99.90;;;;;;4993527;28;20450;-76
2022/09/27 05:26:53;;;;;;;3.45;0.47;;;7.30;99.90;;;;;;4994275;28;20199;-74
2022/09/27 05:29:18;;;;;;;14.13;0.90;;;7.30;99.90;;;;;;4996536;28;20085;-77
2022/09/27 05:31:44;;;;;;;6.68;0.70;;;7.30;99.90;;;;;;4996581;28;20077;-76
2022/09/27 05:34:10;;;;;;;9.52;1.13;;;7.20;99.90;;;;;;4997121;28;20045;-76
2022/09/27 05:36:37;;;;;;;5.67;0.93;;;7.20;99.90;;;;;;4993230;28;20105;-76
2022/09/27 05:39:03;;;;;;;9.80;1.10;;;7.20;99.90;;;;;;4995771;28;20058;-77
2022/09/27 05:41:31;;;;;;;16.23;0.90;;;7.20;99.90;;;;;;4999714;28;20134;-76
2022/09/27 05:43:57;;;;;;;6.75;0.70;;;7.20;99.90;;;;;;5013162;28;20069;-78
2022/09/27 05:46:23;;;;;;;3.80;0.40;;;7.20;99.90;;;;;;5015009;28;20378;-77
2022/09/27 05:48:49;;;;;;;7.00;0.60;;;7.20;99.90;;;;;;4998657;28;20039;-75
2022/09/27 05:51:14;;;;;;;7.68;0.70;;;7.10;99.90;;;;;;5015226;28;20049;-77
2022/09/27 05:53:40;;;;;;;4.35;0.50;;;7.10;99.90;;;;;;4976013;28;20069;-77
2022/09/27 05:56:06;;;;;;;3.42;0.40;;;7.10;99.90;;;;;;5014903;28;20054;-77
2022/09/27 05:58:33;;;;;;;4.45;0.50;;;7.20;99.90;;;;;;5014694;28;20485;-76
2022/09/27 06:00:59;;;;;;;5.85;0.45;;;7.20;99.90;;;;;;5012589;28;20121;-74
2022/09/27 06:03:24;;;;;;;7.13;0.30;;;7.20;99.90;;;;;;5031037;28;20042;-76
2022/09/27 06:05:50;;;;;;;10.13;0.50;;;7.20;99.90;;;;;;5014027;28;20069;-74
2022/09/27 06:08:17;;;;;;;7.38;0.55;;;7.20;99.90;;;;;;5011564;28;20062;-78
2022/09/27 06:10:44;;;;;;;4.22;0.57;;;7.20;99.90;;;;;;4994141;28;20060;-77
2022/09/27 06:13:11;;;;;;;6.83;0.50;;;7.30;99.90;;;;;;5009731;28;20060;-76
2022/09/27 06:15:39;;;;;;;4.03;0.60;;;7.20;99.90;;;;;;5002684;28;20300;-76
2022/09/27 06:18:11;;;;;;;14.68;1.08;;;7.30;99.90;;;;;;4999034;28;20054;-78
2022/09/27 06:20:38;;;;;;;10.32;0.60;;;7.20;99.90;;;;;;5007797;28;20038;-76
2022/09/27 06:23:06;;;;;;;;;;;7.40;99.90;;;;;;5016201;28;20031;-78
2022/09/27 06:25:33;;;;;;;5.55;1.08;;;7.50;99.90;;;;;;5002125;28;19921;-76
2022/09/27 06:27:58;;;;;;;5.00;1.10;;;7.60;99.90;;;;;;4995213;28;20047;-76
2022/09/27 06:30:25;;;;;;;14.63;1.05;;;7.70;99.90;;;;;;4995250;28;20120;-75
2022/09/27 06:32:59;;;;;;;9.80;0.80;;;7.90;99.90;;;;;;4995437;28;20061;-76
2022/09/27 06:35:26;;;;;;;6.50;0.57;;;8.00;99.90;;;;;;4994763;28;20050;-76
2022/09/27 06:37:53;;;;;;;8.70;1.80;;;8.10;99.90;;;;;;4994987;28;20050;-74
2022/09/27 06:40:19;;;;;;;4.87;0.50;;;8.10;99.90;;;;;;4994682;28;20096;-73
2022/09/27 06:42:46;;;;;;;13.73;0.60;;;8.20;99.90;;;;;;4993173;28;20478;-76
2022/09/27 06:45:11;;;;;;;7.18;0.50;;;8.30;99.90;;;;;;4993317;28;20469;-77
2022/09/27 06:47:38;;;;;;;5.82;0.50;;;8.40;99.90;;;;;;5008826;28;20089;-74
2022/09/27 06:50:05;;;;;;;5.43;0.50;;;8.50;99.90;;;;;;4993607;28;20042;-73
2022/09/27 06:52:32;;;;;;;6.07;0.40;;;8.70;99.90;;;;;;4993130;28;20132;-75
2022/09/27 06:54:57;;;;;;;4.65;0.50;;;8.80;99.90;;;;;;4993187;28;20374;-75
2022/09/27 07:00:27;;;;;;;5.82;0.40;;;9.10;99.90;;;;;;4994375;28;20140;-75
2022/09/27 07:02:59;;;;;;;6.72;0.50;;;9.20;99.90;;;;;;4993839;28;20046;-73
2022/09/27 07:05:26;;;;;;;7.10;0.60;;;9.30;99.90;;;;;;4998056;28;20046;-76
2022/09/27 07:07:56;;;;;;;7.28;0.40;;;9.30;99.90;;;;;;4998788;28;20069;-78
2022/09/27 07:10:26;;;;;;;4.75;0.40;;;9.40;99.90;;;;;;4998129;28;20094;-75
2022/09/27 07:12:53;;;;;;;8.32;0.45;;;9.40;99.90;;;;;;4997307;28;20550;-76
2022/09/27 07:15:20;;;;;;;6.63;0.47;;;9.40;99.90;;;;;;4998245;28;20052;-74
2022/09/27 07:17:47;;;;;;;6.40;0.30;;;9.40;99.90;;;;;;4998284;28;20043;-76
2022/09/27 07:20:13;;;;;;;7.65;0.85;;;9.40;99.90;;;;;;4963469;28;20054;-75
2022/09/27 07:22:44;;;;;;;7.10;0.30;;;9.50;99.90;;;;;;4997572;28;20058;-76
2022/09/27 07:25:10;;;;;;;5.72;0.20;;;9.40;99.90;;;;;;4995801;28;20478;-75
2022/09/27 07:27:35;;;;;;;4.88;0.20;;;9.60;99.90;;;;;;4998301;28;20046;-75
2022/09/27 07:30:01;;;;;;;4.40;0.22;;;9.70;99.90;;;;;;4998284;28;20382;-76
2022/09/27 07:32:27;;;;;;;4.72;0.20;;;9.70;99.90;;;;;;4998314;28;20088;-76
2022/09/27 07:34:52;;;;;;;3.92;0.20;;;9.80;99.90;;;;;;5000687;28;20046;-77
2022/09/27 07:37:18;;;;;;;2.72;0.20;;;9.80;99.90;;;;;;5003066;28;20050;-75
2022/09/27 07:39:44;;;;;;;3.15;0.30;;;9.80;99.90;;;;;;5006136;28;20053;-74
2022/09/27 07:42:10;;;;;;;4.25;0.20;;;9.90;99.90;;;;;;5007535;28;20054;-75
2022/09/27 07:44:35;;;;;;;3.55;0.30;;;10.00;99.90;;;;;;5007184;28;20069;-74
2022/09/27 07:47:01;;;;;;;5.32;0.30;;;10.20;99.90;;;;;;5003441;28;20054;-78
2022/09/27 07:49:27;;;;;;;4.70;0.25;;;10.40;99.90;;;;;;4999455;28;20047;-76
2022/09/27 07:51:53;;;;;;;4.13;0.10;;;10.50;99.90;;;;;;4996678;28;20204;-76
2022/09/27 07:54:18;;;;;;;4.82;0.50;;;10.80;99.90;;;;;;4996563;28;20042;-77
2022/09/27 07:56:44;;;;;;;3.30;0.10;;;10.90;99.90;;;;;;4996145;28;20050;-75
2022/09/27 07:59:10;;;;;;;2.83;0.13;;;11.10;99.90;;;;;;4996231;28;20061;-76
2022/09/27 08:01:36;;;;;;;4.75;0.20;;;11.20;99.90;;;;;;4996482;28;20133;-77
2022/09/27 08:04:02;;;;;;;3.78;0.20;;;11.30;99.90;;;;;;4995972;28;20141;-78
2022/09/27 08:06:28;;;;;;;1.90;0.10;;;11.30;99.90;;;;;;5011747;28;20092;-76
2022/09/27 08:08:54;;;;;;;3.33;0.10;;;11.40;99.90;;;;;;4996844;28;20125;-76
2022/09/27 08:11:20;;;;;;;4.82;0.15;;;11.50;99.90;;;;;;4996135;28;20054;-75
2022/09/27 08:13:48;;;;;;;3.73;0.20;;;11.60;99.90;;;;;;4996006;28;20502;-76
2022/09/27 08:16:14;;;;;;;7.95;0.30;;;11.60;99.90;;;;;;4996871;28;20054;-76
2022/09/27 08:18:43;;;;;;;3.70;0.30;;;11.60;99.90;;;;;;4994768;28;20072;-79
2022/09/27 08:21:12;;;;;;;5.22;0.43;;;11.70;99.90;;;;;;4994691;28;20053;-81
2022/09/27 08:23:37;;;;;;;6.72;0.15;;;11.80;99.90;;;;;;4994346;28;20054;-82
2022/09/27 08:26:03;;;;;;;3.40;0.32;;;11.90;99.90;;;;;;4994633;28;20138;-76
2022/09/27 08:28:30;;;;;;;3.22;0.10;;;12.00;99.90;;;;;;4994925;28;20050;-76
2022/09/27 08:31:00;;;;;;;3.00;0.20;;;12.10;99.90;;;;;;4996123;28;20046;-80
2022/09/27 08:33:25;;;;;;;4.18;0.30;;;12.20;99.90;;;;;;4995308;28;20406;-78
2022/09/27 08:35:51;;;;;;;5.30;0.20;;;12.30;99.90;;;;;;4994894;28;20056;-78
2022/09/27 08:38:17;;;;;;;1.27;0.10;;;12.40;99.90;;;;;;4995228;28;20052;-76
2022/09/27 08:40:48;;;;;;;2.58;0.10;;;12.40;99.90;;;;;;4996021;28;20375;-78
2022/09/27 08:43:42;;;;;;;3.72;0.03;;;12.40;99.90;;;;;;4996195;28;20069;-78
2022/09/27 08:46:27;;;;;;;2.78;0.10;;;12.40;99.90;;;;;;4995955;28;20140;-76
2022/09/27 08:49:04;;;;;;;2.70;0.10;;;12.60;99.90;;;;;;4995910;28;20050;-78
2022/09/27 08:51:31;;;;;;;6.03;0.13;;;12.70;99.90;;;;;;4994545;28;20153;-76
2022/09/27 08:54:05;;;;;;;1.58;0.10;;;12.80;99.90;;;;;;4995049;28;20058;-81
2022/09/27 08:56:32;;;;;;;2.65;0.10;;;12.90;99.90;;;;;;4996147;28;20453;-77
2022/09/27 08:59:13;;;;;;;0.52;0.00;;;12.70;99.90;;;;;;4996143;28;20125;-77
2022/09/27 09:01:40;;;;;;;5.57;0.10;;;12.70;99.90;;;;;;4995235;28;20057;-77
2022/09/27 09:04:07;;;;;;;3.30;0.10;;;12.60;99.90;;;;;;4994995;28;20409;-75
2022/09/27 09:06:50;;;;;;;3.70;0.10;;;12.50;99.90;;;;;;4995808;28;20055;-79
2022/09/27 09:09:26;;;;;;;3.97;0.10;;;12.40;99.90;;;;;;4995897;28;20046;-75
2022/09/27 09:14:45;;;;;;;5.75;0.20;;;12.60;99.90;;;;;;5000987;28;20042;-76
2022/09/27 09:17:16;;;;;;;3.58;0.40;;;12.70;99.90;;;;;;5008622;28;20051;-75
2022/09/27 09:19:57;;;;;;;3.35;0.20;;;13.00;99.90;;;;;;5005482;28;20057;-77
2022/09/27 09:23:05;;;;;;;1.92;0.17;;;13.20;99.90;;;;;;4996585;28;20085;-77
2022/09/27 09:25:39;;;;;;;2.67;0.08;;;13.40;99.90;;;;;;4993330;28;20050;-79
2022/09/27 09:28:22;;;;;;;3.60;0.10;;;13.60;99.90;;;;;;4994805;28;20048;-78
2022/09/27 09:31:10;;;;;;;1.98;0.05;;;13.20;99.90;;;;;;5010508;28;20263;-81
2022/09/27 09:33:39;;;;;;;3.08;0.10;;;12.80;99.90;;;;;;4993074;28;20058;-78
2022/09/27 09:36:07;;;;;;;0.55;0.00;;;12.40;99.90;;;;;;4993212;28;20053;-74
2022/09/27 09:38:42;;;;;;;1.65;0.00;;;11.80;99.90;;;;;;5009457;28;20208;-78
2022/09/27 09:41:35;;;;;;;1.35;0.05;;;11.40;99.90;;;;;;4993879;28;20576;-75
2022/09/27 09:44:42;;;;;;;2.65;0.10;;;11.10;99.90;;;;;;4994097;28;20054;-75
2022/09/27 09:47:35;;;;;;;1.30;0.05;;;10.90;99.90;;;;;;4972073;28;20073;-75
2022/09/27 09:50:34;;;;;;;0.50;0.00;;;11.00;99.90;;;;;;4968550;28;20058;-75
2022/09/27 09:53:22;;;;;;;3.72;0.10;;;11.00;99.90;;;;;;4988161;28;20065;-75
2022/09/27 09:56:46;;;;;;;0.88;0.00;;;11.10;99.90;;;;;;4993814;28;20087;-75
2022/09/27 09:59:23;;;;;;;1.05;0.00;;;11.20;99.90;;;;;;4956182;28;20351;-74
2022/09/27 10:01:49;;;;;;;1.67;0.10;;;11.20;99.90;;;;;;4991043;28;20062;-76
2022/09/27 10:04:27;;;;;;;0.85;0.00;;;11.20;99.90;;;;;;4993808;28;20506;-74
2022/09/27 10:06:57;;;;;;;1.98;0.10;;;11.30;99.90;;;;;;4976824;28;20430;-74
2022/09/27 10:09:25;;;;;;;1.38;0.05;;;11.40;99.90;;;;;;4993872;28;20054;-75
2022/09/27 10:11:51;;;;;;;0.32;0.00;;;11.40;99.90;;;;;;4992559;28;20065;-75
2022/09/27 10:14:19;;;;;;;0.30;0.00;;;11.40;99.90;;;;;;4992521;28;20042;-75
2022/09/27 10:16:49;;;;;;;6.15;0.20;;;11.40;99.90;;;;;;5009071;28;20423;-75
2022/09/27 10:19:25;;;;;;;1.70;0.10;;;11.40;99.90;;;;;;4993614;28;20046;-73
2022/09/27 10:21:52;;;;;;;4.47;0.38;;;11.40;99.90;;;;;;4993920;28;20043;-77
2022/09/27 10:24:20;;;;;;;2.92;0.20;;;11.40;99.90;;;;;;4993530;28;20487;-77
2022/09/27 10:26:48;;;;;;;5.43;0.30;;;11.40;99.90;;;;;;4994283;28;20033;-84
2022/09/27 10:29:22;;;;;;;3.13;0.20;;;11.60;99.90;;;;;;4996973;28;20042;-75
2022/09/27 10:31:49;;;;;;;2.03;0.20;;;11.70;99.90;;;;;;4993844;28;20047;-75
2022/09/27 10:34:29;;;;;;;3.55;0.25;;;11.90;99.90;;;;;;4993463;28;20058;-76
2022/09/27 10:37:16;;;;;;;2.63;0.30;;;12.20;99.90;;;;;;4993589;28;20124;-75
2022/09/27 10:39:46;;;;;;;1.45;0.20;;;12.40;99.90;;;;;;4997631;28;20056;-74
2022/09/27 10:42:37;;;;;;;5.68;0.40;;;12.60;99.90;;;;;;4998346;28;20101;-74
2022/09/27 10:45:32;;;;;;;3.70;0.20;;;12.70;99.90;;;;;;4995772;28;20057;-78
2022/09/27 10:48:01;;;;;;;1.33;0.10;;;12.80;99.90;;;;;;4996891;28;20054;-74
2022/09/27 10:50:30;;;;;;;2.90;0.32;;;12.90;99.90;;;;;;4996296;28;20137;-76
2022/09/27 10:53:21;;;;;;;4.43;0.22;;;12.90;99.90;;;;;;4997803;28;20049;-77
2022/09/27 10:55:49;;;;;;;2.15;0.20;;;12.80;99.90;;;;;;4997295;28;20132;-76
2022/09/27 10:58:23;;;;;;;2.15;0.20;;;12.80;99.90;;;;;;4997165;28;20133;-75
2022/09/27 11:01:07;;;;;;;2.78;0.20;;;12.90;99.90;;;;;;4997942;28;20124;-76
2022/09/27 11:03:56;;;;;;;1.67;0.20;;;13.00;99.90;;;;;;4981741;28;20490;-78
2022/09/27 11:06:22;;;;;;;2.83;0.10;;;;;;;;;;4997689;28;20360;-77
2022/09/27 11:08:52;;;;;;;1.63;0.00;;;12.30;99.90;;;;;;4997592;28;20525;-80
2022/09/27 11:11:27;;;;;;;0.73;0.00;;;11.80;99.90;;;;;;5013119;28;20108;-74
2022/09/27 11:14:03;;;;;;;0.65;0.10;;;11.40;99.90;;;;;;4996286;28;20129;-78
2022/09/27 11:17:08;;;;;;;1.88;0.17;;;11.10;99.90;;;;;;4998661;28;20114;-74
2022/09/27 11:19:36;;;;;;;2.08;0.00;;;11.00;99.90;;;;;;4997861;28;20046;-76
2022/09/27 11:22:34;;;;;;;;;;;11.00;99.90;;;;;;4997085;28;20108;-77
2022/09/27 11:25:32;;;;;;;0.20;0.00;;;10.80;99.90;;;;;;4984718;28;19972;-75
2022/09/27 11:28:33;;;;;;;3.08;0.00;;;10.90;99.90;;;;;;4996009;28;20054;-75
2022/09/27 11:31:08;;;;;;;0.10;0.00;;;10.80;99.90;;;;;;4964505;28;20070;-76
2022/09/27 11:33:52;;;;;;;2.05;0.08;;;10.90;99.90;;;;;;4995948;28;20077;-78
2022/09/27 11:36:54;;;;;;;1.27;0.00;;;11.00;99.90;;;;;;4996023;28;20050;-76
2022/09/27 11:39:27;;;;;;;1.50;0.00;;;11.00;99.90;;;;;;4997430;28;20054;-74
2022/09/27 11:42:22;;;;;;;1.35;0.00;;;11.00;99.90;;;;;;5015822;28;20594;-75
2022/09/27 11:44:57;;;;;;;0.40;0.00;;;11.00;99.90;;;;;;5009735;28;20058;-75
2022/09/27 11:48:18;;;;;;;1.85;0.03;;;11.00;99.90;;;;;;5008031;28;20077;-77
2022/09/27 11:50:55;;;;;;;1.60;0.00;;;10.90;99.90;;;;;;4981638;28;20055;-86
2022/09/27 11:53:53;;;;;;;0.55;0.00;;;11.00;99.90;;;;;;4975253;28;20083;-79
2022/09/27 11:56:19;;;;;;;1.58;0.20;;;11.10;99.90;;;;;;4993652;28;20058;-76
2022/09/27 11:59:31;;;;;;;0.85;0.00;;;11.20;99.90;;;;;;5010999;28;20049;-80
2022/09/27 12:02:10;;;;;;;0.93;0.08;;;11.30;99.90;;;;;;4979595;28;20442;-78
2022/09/27 12:04:50;;;;;;;1.77;0.20;;;11.50;99.90;;;;;;4996147;28;20485;-80
2022/09/27 12:07:17;;;;;;;1.55;0.10;;;11.50;99.90;;;;;;4996374;28;20046;-77
2022/09/27 12:09:48;;;;;;;1.17;0.00;;;11.60;99.90;;;;;;4997129;28;20101;-77
2022/09/27 12:12:22;;;;;;;0.88;0.10;;;11.70;99.90;;;;;;5006086;28;20070;-77
2022/09/27 12:14:51;;;;;;;0.30;0.00;;;11.80;99.90;;;;;;5009273;28;20038;-79
2022/09/27 12:17:26;;;;;;;1.60;0.10;;;11.90;99.90;;;;;;5028256;28;20144;-80
2022/09/27 12:19:55;;;;;;;0.32;0.00;;;12.10;99.90;;;;;;4999726;28;20061;-76
2022/09/27 12:22:32;;;;;;;3.25;0.10;;;12.30;99.90;;;;;;4996482;28;20046;-76
2022/09/27 12:24:58;;;;;;;1.00;0.08;;;12.30;99.90;;;;;;4995190;28;20047;-78
2022/09/27 12:27:36;;;;;;;4.03;0.28;;;12.50;99.90;;;;;;4995895;28;20047;-76
2022/09/27 12:30:03;;;;;;;2.67;0.20;;;12.60;99.90;;;;;;4995968;28;20441;-77
2022/09/27 12:32:47;;;;;;;2.03;0.10;;;12.70;99.90;;;;;;4995802;28;20116;-79
2022/09/27 12:35:29;;;;;;;4.25;0.20;;;12.90;99.90;;;;;;4995849;28;20121;-80
2022/09/27 12:38:09;;;;;;;2.03;0.10;;;13.00;99.90;;;;;;4980303;28;20050;-79
2022/09/27 12:40:39;;;;;;;2.83;0.15;;;13.10;99.90;;;;;;5010952;28;20046;-80
2022/09/27 12:43:22;;;;;;;2.90;0.10;;;13.10;99.90;;;;;;4995705;28;20533;-77
2022/09/27 12:46:03;;;;;;;2.47;0.10;;;13.40;99.90;;;;;;4996507;28;20058;-80
2022/09/27 12:48:41;;;;;;;1.38;0.00;;;13.40;99.90;;;;;;4996098;28;20362;-77
2022/09/27 12:51:12;;;;;;;2.72;0.10;;;13.50;99.90;;;;;;4995252;28;20109;-78
2022/09/27 12:53:57;;;;;;;1.35;0.10;;;13.30;99.90;;;;;;5011462;28;20069;-81
2022/09/27 12:56:48;;;;;;;2.33;0.28;;;13.50;99.90;;;;;;4996507;28;20490;-77
2022/09/27 12:59:33;;;;;;;6.03;0.10;;;13.60;99.90;;;;;;4995105;28;20482;-77
2022/09/27 13:02:37;;;;;;;2.05;0.17;;;13.70;99.90;;;;;;4993235;28;20442;-79
2022/09/27 13:05:29;;;;;;;1.63;0.08;;;13.70;99.90;;;;;;4995022;28;20089;-76
2022/09/27 13:08:13;;;;;;;2.25;0.10;;;13.60;99.90;;;;;;4994555;28;20050;-78
2022/09/27 13:11:10;;;;;;;1.73;0.10;;;13.40;99.90;;;;;;4996205;28;20072;-81
2022/09/27 13:13:38;;;;;;;5.82;0.20;;;13.30;99.90;;;;;;4994069;28;20189;-77
2022/09/27 13:16:05;;;;;;;2.33;0.10;;;13.20;99.90;;;;;;4993499;28;20478;-75
2022/09/27 13:18:34;;;;;;;2.25;0.17;;;13.00;99.90;;;;;;4994883;28;20050;-76
2022/09/27 13:21:07;;;;;;;2.85;0.10;;;12.80;99.90;;;;;;4994929;28;20057;-77
2022/09/27 13:23:38;;;;;;;0.30;0.00;;;12.60;99.90;;;;;;4994611;28;20061;-77
2022/09/27 13:26:33;;;;;;;0.82;0.08;;;12.50;99.90;;;;;;4993472;28;20447;-76
2022/09/27 13:29:02;;;;;;;0.95;0.00;;;12.40;99.90;;;;;;4991480;28;20058;-79